Lawrenceville, Georgia
Current Conditions -  °F | °C
As of 8:45 AM on Sunday 21 Dec 2014 (Local Time) from KLZU Reporting Station
Haze Haze  
Wind Chill: 41°   Ceiling: 400
Heat Index: 45°   Visibility: 2mi
Dew Point: 37°   Wind: 6mph
Humidity: 76%   Direction: 50°NE
Pressure: 30.2"   Gusts: NA
Location:  33.95°N, 83.99°W
Report Text: KLZU 211345Z 05005KT 02SM BR OVC004 07/03 A3020 RMK ATIS H RWY 25 LL
Loading
Personal Weather Stations






























Interactive Weather Map New forecast layout! Learn more

10-Day Weather Forecast

Advertisements
Track Severe Weather on mobile